Poseidon — JD3978 — position and weather

sailwx.info

Track history (hours):
 
Tides and Currents Weather Stations Pressure Air Temp Water Temp Dewpoint Dewpoint Depression Visibility Wind Speed Wind Dir Waves Ship Positions

Poseidon

Last reported at 2018-Jan-20 01:00 UTC. Time now 2018-Jan-20 01:11 UTC.
Position N 33°48' E 130°60'.

Length 70 m; draft 5 m.

Type: Cargo ship. MMSI: 431007549.

Date/timePositionNaut miles runAvg speedWind from/ knotsBaromVisibWave heightAir tempDewpointWater temp
2018-Jan-20 01:00N 33°48' E 130°60'0 0.0
2018-Jan-20 00:30N 33°48' E 130°60'0 0.0
2018-Jan-20 00:00N 33°48' E 130°60'0 0.0
2018-Jan-19 23:30N 33°48' E 130°60'0 0.0
2018-Jan-19 22:58N 33°48' E 130°60'0 0.0
2018-Jan-19 22:30N 33°48' E 130°60'4 7.4
2018-Jan-19 22:00N 33°50' E 131°04'0 0.0
2018-Jan-19 21:30N 33°50' E 131°04'0 0.0
2018-Jan-19 21:00N 33°50' E 131°04'0 0.0
2018-Jan-19 20:29N 33°50' E 131°04'0 0.0
2018-Jan-19 20:00N 33°50' E 131°04'0 0.0
2018-Jan-19 19:31N 33°50' E 131°04'0 0.0
2018-Jan-19 19:00N 33°50' E 131°04'0 0.0
2018-Jan-19 18:30N 33°50' E 131°04'0 0.0
2018-Jan-19 18:00N 33°50' E 131°04'0 0.0
2018-Jan-19 17:30N 33°50' E 131°04'0 0.0
2018-Jan-19 17:00N 33°50' E 131°04'0 0.0
2018-Jan-19 16:30N 33°50' E 131°04'0 0.0
2018-Jan-19 16:01N 33°50' E 131°04'0 0.0
2018-Jan-19 15:30N 33°50' E 131°04'0 0.0
2018-Jan-19 15:00N 33°50' E 131°04'0 0.0
2018-Jan-19 14:30N 33°50' E 131°04'0 0.0
2018-Jan-19 14:00N 33°50' E 131°04'0 0.0
2018-Jan-19 13:30N 33°50' E 131°04'0 0.0
2018-Jan-19 13:00N 33°50' E 131°04'0 0.1
2018-Jan-19 12:30N 33°50' E 131°04'0 0.1
2018-Jan-19 12:00N 33°50' E 131°04'1 3.0
2018-Jan-19 11:31N 33°51' E 131°03'510.7
2018-Jan-19 11:00N 33°56' E 131°02'1 3.0
2018-Jan-19 10:31N 33°58' E 131°01'0 0.0
2018-Jan-19 10:01N 33°58' E 131°01'0 0.0
2018-Jan-19 09:30N 33°58' E 131°01'0 0.0
2018-Jan-19 09:01N 33°58' E 131°01'0 0.0
2018-Jan-19 08:30N 33°58' E 131°01'0 0.0
2018-Jan-19 08:00N 33°58' E 131°01'0 0.0
2018-Jan-19 07:30N 33°58' E 131°01'0 0.0
2018-Jan-19 07:00N 33°58' E 131°01'0 0.0
2018-Jan-19 06:30N 33°58' E 131°01'0 0.0
2018-Jan-19 06:00N 33°58' E 131°01'0 0.0
2018-Jan-19 05:30N 33°58' E 131°01'0 0.0
2018-Jan-19 05:00N 33°58' E 131°01'2 3.1
2018-Jan-19 04:30N 33°57' E 131°03'5 9.9
2018-Jan-19 04:00N 33°54' E 131°08'5 9.7
2018-Jan-19 03:30N 33°52' E 131°13'5 9.9
2018-Jan-19 03:01N 33°51' E 131°19'510.2
2018-Jan-19 02:30N 33°51' E 131°25'510.2
2018-Jan-19 02:00N 33°49' E 131°31'510.4
2018-Jan-19 01:30N 33°49' E 131°37'510.7
2018-Jan-19 01:00N 33°48' E 131°44'510.9
2018-Jan-19 00:30N 33°47' E 131°50'610.8
2018-Jan-18 23:58N 33°46' E 131°57'510.3
2018-Jan-18 23:30N 33°46' E 132°03'5 9.9
2018-Jan-18 22:58N 33°48' E 132°08'6 9.5
2018-Jan-18 22:23N 33°50' E 132°15'16 9.4
2018-Jan-18 20:42N 33°57' E 132°32'410.9
2018-Jan-18 20:20N 33°59' E 132°35'411.1
2018-Jan-18 20:00N 34°02' E 132°39'  
2018-Jan-12 15:00N 35°01' E 136°52'0 0.0
2018-Jan-12 14:30N 35°01' E 136°52'0 0.0
2018-Jan-12 14:00N 35°01' E 136°52'0 0.0
2018-Jan-12 13:30N 35°01' E 136°52'0 0.0
2018-Jan-12 13:00N 35°01' E 136°52'0 0.0
2018-Jan-12 12:30N 35°01' E 136°52'0 0.0
2018-Jan-12 12:00N 35°01' E 136°52'0 0.0
2018-Jan-12 11:30N 35°01' E 136°52'0 0.0
2018-Jan-12 11:00N 35°01' E 136°52'0 0.0
2018-Jan-12 10:30N 35°01' E 136°52'0 0.0
2018-Jan-12 10:00N 35°01' E 136°52'0 0.0
2018-Jan-12 09:30N 35°01' E 136°52'0 0.7
2018-Jan-12 09:00N 35°01' E 136°52'4 8.5
2018-Jan-12 08:30N 34°58' E 136°48'510.0
2018-Jan-12 08:00N 34°53' E 136°47'510.1
2018-Jan-12 07:30N 34°48' E 136°48'104 6.8
2018-Jan-11 16:12N 33°45' E 135°08'311.0
2018-Jan-11 15:57N 33°47' E 135°05'510.9
2018-Jan-11 15:31N 33°50' E 135°01'510.6
2018-Jan-11 15:01N 33°54' E 134°57'510.7
2018-Jan-11 14:30N 33°59' E 134°53'510.9
2018-Jan-11 14:00N 34°03' E 134°49'510.8
2018-Jan-11 13:30N 34°07' E 134°45'611.8
2018-Jan-11 13:00N 34°12' E 134°41'611.5
2018-Jan-11 12:30N 34°16' E 134°36'510.8
2018-Jan-11 12:00N 34°18' E 134°30'710.9
2018-Jan-11 11:20N 34°21' E 134°22'70 4.6
2018-Jan-10 19:59N 34°09' E 132°58'1211.3
2018-Jan-10 18:56N 34°02' E 132°47'512.1
2018-Jan-10 18:30N 33°57' E 132°43'612.2
2018-Jan-10 17:59N 33°53' E 132°37'1111.8
2018-Jan-10 17:03N 33°50' E 132°24'111.4
2018-Jan-10 16:58N 33°50' E 132°23'511.6
2018-Jan-10 16:30N 33°50' E 132°17'611.1
2018-Jan-10 15:56N 33°48' E 132°09'511.0
2018-Jan-10 15:30N 33°46' E 132°05'610.9
2018-Jan-10 14:55N 33°45' E 131°57'511.3
2018-Jan-10 14:30N 33°45' E 131°51'611.3
2018-Jan-10 14:00N 33°45' E 131°45'611.4
2018-Jan-10 13:30N 33°47' E 131°38'611.6
2018-Jan-10 13:00N 33°48' E 131°31'611.6
2018-Jan-10 12:30N 33°49' E 131°24'611.5
2018-Jan-10 12:00N 33°50' E 131°17'612.1
2018-Jan-10 11:30N 33°52' E 131°11'612.0
2018-Jan-10 11:00N 33°56' E 131°05'4 7.2
2018-Jan-10 10:30N 33°58' E 131°01'0 0.0
2018-Jan-10 10:00N 33°58' E 131°01'0 0.0
2018-Jan-10 09:30N 33°58' E 131°01'0 0.0
2018-Jan-10 09:00N 33°58' E 131°01'0 0.0
2018-Jan-10 08:30N 33°58' E 131°01'0 0.0
2018-Jan-10 08:00N 33°58' E 131°01'0 0.0
2018-Jan-10 07:30N 33°58' E 131°01'0 0.0
2018-Jan-10 07:00N 33°58' E 131°01'0 0.0
2018-Jan-10 06:30N 33°58' E 131°01'0 0.0
2018-Jan-10 06:00N 33°58' E 131°01'0 0.0
2018-Jan-10 05:30N 33°58' E 131°01'0 0.0
2018-Jan-10 05:00N 33°58' E 131°01'1 1.4
2018-Jan-10 04:30N 33°58' E 131°02'510.2
2018-Jan-10 04:00N 33°55' E 131°07'510.2
2018-Jan-10 03:30N 33°53' E 131°13'510.1
2018-Jan-10 03:00N 33°52' E 131°19'510.3
2018-Jan-10 02:30N 33°51' E 131°25'510.5
2018-Jan-10 02:00N 33°50' E 131°31'510.6
2018-Jan-10 01:30N 33°49' E 131°37'510.3
2018-Jan-10 01:00N 33°48' E 131°43'  
Track history (hours):
 
Tides and Currents Weather Stations Pressure Air Temp Water Temp Dewpoint Dewpoint Depression Visibility Wind Speed Wind Dir Waves Ship Positions

Poseidon

Last reported at 2018-Jan-20 01:00 UTC. Time now 2018-Jan-20 01:11 UTC.
Position N 33°48' E 130°60'.

Length 70 m; draft 5 m.

Type: Cargo ship. MMSI: 431007549.

Date/timePositionNaut miles runAvg speedWind from/ knotsBaromVisibWave heightAir tempDewpointWater temp
2018-Jan-20 01:00N 33°48' E 130°60'0 0.0
2018-Jan-20 00:30N 33°48' E 130°60'0 0.0
2018-Jan-20 00:00N 33°48' E 130°60'0 0.0
2018-Jan-19 23:30N 33°48' E 130°60'0 0.0
2018-Jan-19 22:58N 33°48' E 130°60'0 0.0
2018-Jan-19 22:30N 33°48' E 130°60'4 7.4
2018-Jan-19 22:00N 33°50' E 131°04'0 0.0
2018-Jan-19 21:30N 33°50' E 131°04'0 0.0
2018-Jan-19 21:00N 33°50' E 131°04'0 0.0
2018-Jan-19 20:29N 33°50' E 131°04'0 0.0
2018-Jan-19 20:00N 33°50' E 131°04'0 0.0
2018-Jan-19 19:31N 33°50' E 131°04'0 0.0
2018-Jan-19 19:00N 33°50' E 131°04'0 0.0
2018-Jan-19 18:30N 33°50' E 131°04'0 0.0
2018-Jan-19 18:00N 33°50' E 131°04'0 0.0
2018-Jan-19 17:30N 33°50' E 131°04'0 0.0
2018-Jan-19 17:00N 33°50' E 131°04'0 0.0
2018-Jan-19 16:30N 33°50' E 131°04'0 0.0
2018-Jan-19 16:01N 33°50' E 131°04'0 0.0
2018-Jan-19 15:30N 33°50' E 131°04'0 0.0
2018-Jan-19 15:00N 33°50' E 131°04'0 0.0
2018-Jan-19 14:30N 33°50' E 131°04'0 0.0
2018-Jan-19 14:00N 33°50' E 131°04'0 0.0
2018-Jan-19 13:30N 33°50' E 131°04'0 0.0
2018-Jan-19 13:00N 33°50' E 131°04'0 0.1
2018-Jan-19 12:30N 33°50' E 131°04'0 0.1
2018-Jan-19 12:00N 33°50' E 131°04'1 3.0
2018-Jan-19 11:31N 33°51' E 131°03'510.7
2018-Jan-19 11:00N 33°56' E 131°02'1 3.0
2018-Jan-19 10:31N 33°58' E 131°01'0 0.0
2018-Jan-19 10:01N 33°58' E 131°01'0 0.0
2018-Jan-19 09:30N 33°58' E 131°01'0 0.0
2018-Jan-19 09:01N 33°58' E 131°01'0 0.0
2018-Jan-19 08:30N 33°58' E 131°01'0 0.0
2018-Jan-19 08:00N 33°58' E 131°01'0 0.0
2018-Jan-19 07:30N 33°58' E 131°01'0 0.0
2018-Jan-19 07:00N 33°58' E 131°01'0 0.0
2018-Jan-19 06:30N 33°58' E 131°01'0 0.0
2018-Jan-19 06:00N 33°58' E 131°01'0 0.0
2018-Jan-19 05:30N 33°58' E 131°01'0 0.0
2018-Jan-19 05:00N 33°58' E 131°01'2 3.1
2018-Jan-19 04:30N 33°57' E 131°03'5 9.9
2018-Jan-19 04:00N 33°54' E 131°08'5 9.7
2018-Jan-19 03:30N 33°52' E 131°13'5 9.9
2018-Jan-19 03:01N 33°51' E 131°19'510.2
2018-Jan-19 02:30N 33°51' E 131°25'510.2
2018-Jan-19 02:00N 33°49' E 131°31'510.4
2018-Jan-19 01:30N 33°49' E 131°37'510.7
2018-Jan-19 01:00N 33°48' E 131°44'510.9
2018-Jan-19 00:30N 33°47' E 131°50'610.8
2018-Jan-18 23:58N 33°46' E 131°57'510.3
2018-Jan-18 23:30N 33°46' E 132°03'5 9.9
2018-Jan-18 22:58N 33°48' E 132°08'6 9.5
2018-Jan-18 22:23N 33°50' E 132°15'16 9.4
2018-Jan-18 20:42N 33°57' E 132°32'410.9
2018-Jan-18 20:20N 33°59' E 132°35'411.1
2018-Jan-18 20:00N 34°02' E 132°39'  
2018-Jan-12 15:00N 35°01' E 136°52'0 0.0
2018-Jan-12 14:30N 35°01' E 136°52'0 0.0
2018-Jan-12 14:00N 35°01' E 136°52'0 0.0
2018-Jan-12 13:30N 35°01' E 136°52'0 0.0
2018-Jan-12 13:00N 35°01' E 136°52'0 0.0
2018-Jan-12 12:30N 35°01' E 136°52'0 0.0
2018-Jan-12 12:00N 35°01' E 136°52'0 0.0
2018-Jan-12 11:30N 35°01' E 136°52'0 0.0
2018-Jan-12 11:00N 35°01' E 136°52'0 0.0
2018-Jan-12 10:30N 35°01' E 136°52'0 0.0
2018-Jan-12 10:00N 35°01' E 136°52'0 0.0
2018-Jan-12 09:30N 35°01' E 136°52'0 0.7
2018-Jan-12 09:00N 35°01' E 136°52'4 8.5
2018-Jan-12 08:30N 34°58' E 136°48'510.0
2018-Jan-12 08:00N 34°53' E 136°47'510.1
2018-Jan-12 07:30N 34°48' E 136°48'104 6.8
2018-Jan-11 16:12N 33°45' E 135°08'311.0
2018-Jan-11 15:57N 33°47' E 135°05'510.9
2018-Jan-11 15:31N 33°50' E 135°01'510.6
2018-Jan-11 15:01N 33°54' E 134°57'510.7
2018-Jan-11 14:30N 33°59' E 134°53'510.9
2018-Jan-11 14:00N 34°03' E 134°49'510.8
2018-Jan-11 13:30N 34°07' E 134°45'611.8
2018-Jan-11 13:00N 34°12' E 134°41'611.5
2018-Jan-11 12:30N 34°16' E 134°36'510.8
2018-Jan-11 12:00N 34°18' E 134°30'710.9
2018-Jan-11 11:20N 34°21' E 134°22'70 4.6
2018-Jan-10 19:59N 34°09' E 132°58'1211.3
2018-Jan-10 18:56N 34°02' E 132°47'512.1
2018-Jan-10 18:30N 33°57' E 132°43'612.2
2018-Jan-10 17:59N 33°53' E 132°37'1111.8
2018-Jan-10 17:03N 33°50' E 132°24'111.4
2018-Jan-10 16:58N 33°50' E 132°23'511.6
2018-Jan-10 16:30N 33°50' E 132°17'611.1
2018-Jan-10 15:56N 33°48' E 132°09'511.0
2018-Jan-10 15:30N 33°46' E 132°05'610.9
2018-Jan-10 14:55N 33°45' E 131°57'511.3
2018-Jan-10 14:30N 33°45' E 131°51'611.3
2018-Jan-10 14:00N 33°45' E 131°45'611.4
2018-Jan-10 13:30N 33°47' E 131°38'611.6
2018-Jan-10 13:00N 33°48' E 131°31'611.6
2018-Jan-10 12:30N 33°49' E 131°24'611.5
2018-Jan-10 12:00N 33°50' E 131°17'612.1
2018-Jan-10 11:30N 33°52' E 131°11'612.0
2018-Jan-10 11:00N 33°56' E 131°05'4 7.2
2018-Jan-10 10:30N 33°58' E 131°01'0 0.0
2018-Jan-10 10:00N 33°58' E 131°01'0 0.0
2018-Jan-10 09:30N 33°58' E 131°01'0 0.0
2018-Jan-10 09:00N 33°58' E 131°01'0 0.0
2018-Jan-10 08:30N 33°58' E 131°01'0 0.0
2018-Jan-10 08:00N 33°58' E 131°01'0 0.0
2018-Jan-10 07:30N 33°58' E 131°01'0 0.0
2018-Jan-10 07:00N 33°58' E 131°01'0 0.0
2018-Jan-10 06:30N 33°58' E 131°01'0 0.0
2018-Jan-10 06:00N 33°58' E 131°01'0 0.0
2018-Jan-10 05:30N 33°58' E 131°01'0 0.0
2018-Jan-10 05:00N 33°58' E 131°01'1 1.4
2018-Jan-10 04:30N 33°58' E 131°02'510.2
2018-Jan-10 04:00N 33°55' E 131°07'510.2
2018-Jan-10 03:30N 33°53' E 131°13'510.1
2018-Jan-10 03:00N 33°52' E 131°19'510.3
2018-Jan-10 02:30N 33°51' E 131°25'510.5
2018-Jan-10 02:00N 33°50' E 131°31'510.6
2018-Jan-10 01:30N 33°49' E 131°37'510.3
2018-Jan-10 01:00N 33°48' E 131°43'  

Dump ship's entire track history